sensor_id;sensor_type;location;lat;lon;timestamp;P1;durP1;ratioP1;P2;durP2;ratioP2
52470;SDS011;38382;53.160;7.026;2022-10-26T00:00:07;15.20;;;8.93;;
52470;SDS011;38382;53.160;7.026;2022-10-26T00:02:33;19.02;;;10.13;;
52470;SDS011;38382;53.160;7.026;2022-10-26T00:04:59;20.77;;;10.20;;
52470;SDS011;38382;53.160;7.026;2022-10-26T00:07:25;20.95;;;10.68;;
52470;SDS011;38382;53.160;7.026;2022-10-26T00:09:53;14.85;;;8.75;;
52470;SDS011;38382;53.160;7.026;2022-10-26T00:12:19;19.52;;;10.35;;
52470;SDS011;38382;53.160;7.026;2022-10-26T00:14:45;16.17;;;9.27;;
52470;SDS011;38382;53.160;7.026;2022-10-26T00:17:11;20.83;;;9.07;;
52470;SDS011;38382;53.160;7.026;2022-10-26T00:19:37;18.38;;;9.18;;
52470;SDS011;38382;53.160;7.026;2022-10-26T00:22:02;18.73;;;9.05;;
52470;SDS011;38382;53.160;7.026;2022-10-26T00:24:28;18.40;;;9.48;;
52470;SDS011;38382;53.160;7.026;2022-10-26T00:26:54;15.85;;;9.10;;
52470;SDS011;38382;53.160;7.026;2022-10-26T00:29:19;18.50;;;8.80;;
52470;SDS011;38382;53.160;7.026;2022-10-26T00:31:45;19.38;;;10.30;;
52470;SDS011;38382;53.160;7.026;2022-10-26T00:34:11;16.73;;;9.00;;
52470;SDS011;38382;53.160;7.026;2022-10-26T00:36:36;20.15;;;9.65;;
52470;SDS011;38382;53.160;7.026;2022-10-26T00:39:02;19.98;;;9.95;;
52470;SDS011;38382;53.160;7.026;2022-10-26T00:41:29;17.67;;;9.77;;
52470;SDS011;38382;53.160;7.026;2022-10-26T00:43:57;14.73;;;8.70;;
52470;SDS011;38382;53.160;7.026;2022-10-26T00:46:28;16.13;;;9.77;;
52470;SDS011;38382;53.160;7.026;2022-10-26T00:48:58;20.77;;;9.27;;
52470;SDS011;38382;53.160;7.026;2022-10-26T00:51:34;22.25;;;10.40;;
52470;SDS011;38382;53.160;7.026;2022-10-26T00:54:06;14.63;;;8.75;;
52470;SDS011;38382;53.160;7.026;2022-10-26T00:56:35;18.60;;;9.77;;
52470;SDS011;38382;53.160;7.026;2022-10-26T00:59:02;16.85;;;9.43;;
52470;SDS011;38382;53.160;7.026;2022-10-26T01:01:32;16.35;;;9.05;;
52470;SDS011;38382;53.160;7.026;2022-10-26T01:04:00;16.73;;;9.57;;
52470;SDS011;38382;53.160;7.026;2022-10-26T01:06:27;14.30;;;7.63;;
52470;SDS011;38382;53.160;7.026;2022-10-26T01:08:54;16.35;;;8.48;;
52470;SDS011;38382;53.160;7.026;2022-10-26T01:11:20;15.70;;;9.50;;
52470;SDS011;38382;53.160;7.026;2022-10-26T01:13:45;16.90;;;9.27;;
52470;SDS011;38382;53.160;7.026;2022-10-26T01:21:46;16.15;;;9.20;;
52470;SDS011;38382;53.160;7.026;2022-10-26T01:35:27;18.92;;;11.05;;
52470;SDS011;38382;53.160;7.026;2022-10-26T01:37:58;18.10;;;10.40;;
52470;SDS011;38382;53.160;7.026;2022-10-26T01:40:33;24.20;;;11.65;;
52470;SDS011;38382;53.160;7.026;2022-10-26T01:43:05;17.30;;;9.90;;
52470;SDS011;38382;53.160;7.026;2022-10-26T01:45:33;16.00;;;9.63;;
52470;SDS011;38382;53.160;7.026;2022-10-26T01:48:01;14.02;;;8.93;;
52470;SDS011;38382;53.160;7.026;2022-10-26T01:50:28;18.55;;;11.02;;
52470;SDS011;38382;53.160;7.026;2022-10-26T01:52:56;14.75;;;9.35;;
52470;SDS011;38382;53.160;7.026;2022-10-26T01:58:06;13.60;;;8.13;;
52470;SDS011;38382;53.160;7.026;2022-10-26T02:00:45;14.43;;;9.50;;
52470;SDS011;38382;53.160;7.026;2022-10-26T02:03:44;14.32;;;8.60;;
52470;SDS011;38382;53.160;7.026;2022-10-26T02:11:45;16.83;;;8.45;;
52470;SDS011;38382;53.160;7.026;2022-10-26T02:16:45;22.92;;;10.07;;
52470;SDS011;38382;53.160;7.026;2022-10-26T02:22:15;12.50;;;7.75;;
52470;SDS011;38382;53.160;7.026;2022-10-26T02:24:50;17.70;;;9.60;;
52470;SDS011;38382;53.160;7.026;2022-10-26T02:27:27;16.90;;;9.32;;
52470;SDS011;38382;53.160;7.026;2022-10-26T02:29:56;20.63;;;10.30;;
52470;SDS011;38382;53.160;7.026;2022-10-26T02:32:25;18.70;;;9.95;;
52470;SDS011;38382;53.160;7.026;2022-10-26T02:34:55;16.90;;;9.15;;
52470;SDS011;38382;53.160;7.026;2022-10-26T02:37:23;13.32;;;7.82;;
52470;SDS011;38382;53.160;7.026;2022-10-26T02:39:50;16.08;;;8.77;;
52470;SDS011;38382;53.160;7.026;2022-10-26T02:42:18;19.48;;;9.40;;
52470;SDS011;38382;53.160;7.026;2022-10-26T02:44:48;16.48;;;9.90;;
52470;SDS011;38382;53.160;7.026;2022-10-26T02:47:18;13.07;;;8.10;;
52470;SDS011;38382;53.160;7.026;2022-10-26T02:49:44;13.40;;;8.52;;
52470;SDS011;38382;53.160;7.026;2022-10-26T02:55:08;18.85;;;9.98;;
52470;SDS011;38382;53.160;7.026;2022-10-26T02:57:36;15.30;;;9.68;;
52470;SDS011;38382;53.160;7.026;2022-10-26T03:00:08;14.20;;;8.80;;
52470;SDS011;38382;53.160;7.026;2022-10-26T03:02:36;23.93;;;10.47;;
52470;SDS011;38382;53.160;7.026;2022-10-26T03:05:35;20.20;;;10.85;;
52470;SDS011;38382;53.160;7.026;2022-10-26T03:07:56;19.48;;;9.23;;
52470;SDS011;38382;53.160;7.026;2022-10-26T03:10:23;14.70;;;8.90;;
52470;SDS011;38382;53.160;7.026;2022-10-26T03:12:49;15.80;;;9.10;;
52470;SDS011;38382;53.160;7.026;2022-10-26T03:15:15;19.20;;;10.43;;
52470;SDS011;38382;53.160;7.026;2022-10-26T03:17:41;18.48;;;10.63;;
52470;SDS011;38382;53.160;7.026;2022-10-26T03:20:07;16.48;;;8.80;;
52470;SDS011;38382;53.160;7.026;2022-10-26T03:22:33;14.05;;;9.02;;
52470;SDS011;38382;53.160;7.026;2022-10-26T03:24:59;17.90;;;10.25;;
52470;SDS011;38382;53.160;7.026;2022-10-26T03:27:24;20.98;;;11.65;;
52470;SDS011;38382;53.160;7.026;2022-10-26T03:29:51;18.85;;;10.50;;
52470;SDS011;38382;53.160;7.026;2022-10-26T03:32:17;16.88;;;9.48;;
52470;SDS011;38382;53.160;7.026;2022-10-26T03:34:42;17.08;;;9.48;;
52470;SDS011;38382;53.160;7.026;2022-10-26T03:37:08;23.20;;;11.55;;
52470;SDS011;38382;53.160;7.026;2022-10-26T03:39:34;20.95;;;11.80;;
52470;SDS011;38382;53.160;7.026;2022-10-26T03:41:59;22.05;;;12.52;;
52470;SDS011;38382;53.160;7.026;2022-10-26T03:44:25;19.10;;;10.40;;
52470;SDS011;38382;53.160;7.026;2022-10-26T03:46:51;22.63;;;13.05;;
52470;SDS011;38382;53.160;7.026;2022-10-26T03:49:17;23.92;;;13.13;;
52470;SDS011;38382;53.160;7.026;2022-10-26T03:51:42;18.48;;;12.13;;
52470;SDS011;38382;53.160;7.026;2022-10-26T03:54:08;21.17;;;10.95;;
52470;SDS011;38382;53.160;7.026;2022-10-26T03:56:34;19.40;;;11.35;;
52470;SDS011;38382;53.160;7.026;2022-10-26T03:58:59;14.38;;;9.40;;
52470;SDS011;38382;53.160;7.026;2022-10-26T04:01:25;25.08;;;13.13;;
52470;SDS011;38382;53.160;7.026;2022-10-26T04:03:51;24.58;;;13.10;;
52470;SDS011;38382;53.160;7.026;2022-10-26T04:06:16;20.38;;;12.02;;
52470;SDS011;38382;53.160;7.026;2022-10-26T04:08:42;24.73;;;12.50;;
52470;SDS011;38382;53.160;7.026;2022-10-26T04:11:08;27.88;;;15.15;;
52470;SDS011;38382;53.160;7.026;2022-10-26T04:13:33;25.27;;;14.02;;
52470;SDS011;38382;53.160;7.026;2022-10-26T04:15:59;21.75;;;12.15;;
52470;SDS011;38382;53.160;7.026;2022-10-26T04:18:25;32.50;;;15.68;;
52470;SDS011;38382;53.160;7.026;2022-10-26T04:20:50;21.55;;;12.75;;
52470;SDS011;38382;53.160;7.026;2022-10-26T04:23:16;25.48;;;13.23;;
52470;SDS011;38382;53.160;7.026;2022-10-26T04:25:43;21.45;;;12.55;;
52470;SDS011;38382;53.160;7.026;2022-10-26T04:28:10;15.45;;;9.90;;
52470;SDS011;38382;53.160;7.026;2022-10-26T04:30:36;28.25;;;14.90;;
52470;SDS011;38382;53.160;7.026;2022-10-26T04:33:03;24.60;;;12.82;;
52470;SDS011;38382;53.160;7.026;2022-10-26T04:35:29;16.65;;;10.57;;
52470;SDS011;38382;53.160;7.026;2022-10-26T04:37:56;22.65;;;13.52;;
52470;SDS011;38382;53.160;7.026;2022-10-26T04:40:26;29.88;;;14.48;;
52470;SDS011;38382;53.160;7.026;2022-10-26T04:42:53;19.98;;;11.55;;
52470;SDS011;38382;53.160;7.026;2022-10-26T04:45:19;23.13;;;13.02;;
52470;SDS011;38382;53.160;7.026;2022-10-26T04:47:45;21.48;;;12.88;;
52470;SDS011;38382;53.160;7.026;2022-10-26T04:50:11;27.25;;;14.07;;
52470;SDS011;38382;53.160;7.026;2022-10-26T04:52:38;23.40;;;13.27;;
52470;SDS011;38382;53.160;7.026;2022-10-26T04:55:04;21.20;;;12.32;;
52470;SDS011;38382;53.160;7.026;2022-10-26T04:57:31;21.17;;;12.57;;
52470;SDS011;38382;53.160;7.026;2022-10-26T04:59:58;25.52;;;14.13;;
52470;SDS011;38382;53.160;7.026;2022-10-26T05:02:25;25.73;;;14.05;;
52470;SDS011;38382;53.160;7.026;2022-10-26T05:04:51;23.70;;;13.50;;
52470;SDS011;38382;53.160;7.026;2022-10-26T05:07:17;26.63;;;14.10;;
52470;SDS011;38382;53.160;7.026;2022-10-26T05:09:43;25.73;;;12.90;;
52470;SDS011;38382;53.160;7.026;2022-10-26T05:12:08;28.73;;;13.85;;
52470;SDS011;38382;53.160;7.026;2022-10-26T05:14:34;23.85;;;12.20;;
52470;SDS011;38382;53.160;7.026;2022-10-26T05:17:00;25.58;;;13.40;;
52470;SDS011;38382;53.160;7.026;2022-10-26T05:19:25;28.67;;;14.20;;
52470;SDS011;38382;53.160;7.026;2022-10-26T05:21:51;27.92;;;13.85;;
52470;SDS011;38382;53.160;7.026;2022-10-26T05:24:17;21.38;;;11.77;;
52470;SDS011;38382;53.160;7.026;2022-10-26T05:26:43;29.80;;;13.75;;
52470;SDS011;38382;53.160;7.026;2022-10-26T05:29:09;24.02;;;12.98;;
52470;SDS011;38382;53.160;7.026;2022-10-26T05:31:35;24.60;;;14.15;;
52470;SDS011;38382;53.160;7.026;2022-10-26T05:34:01;22.27;;;13.13;;
52470;SDS011;38382;53.160;7.026;2022-10-26T05:36:27;23.13;;;13.50;;
52470;SDS011;38382;53.160;7.026;2022-10-26T05:38:52;23.58;;;13.07;;
52470;SDS011;38382;53.160;7.026;2022-10-26T05:41:22;22.40;;;12.43;;
52470;SDS011;38382;53.160;7.026;2022-10-26T05:43:48;23.05;;;13.48;;
52470;SDS011;38382;53.160;7.026;2022-10-26T05:46:13;25.63;;;13.57;;
52470;SDS011;38382;53.160;7.026;2022-10-26T05:48:39;25.00;;;13.50;;
52470;SDS011;38382;53.160;7.026;2022-10-26T05:51:05;29.95;;;14.60;;
52470;SDS011;38382;53.160;7.026;2022-10-26T05:53:30;26.13;;;13.75;;
52470;SDS011;38382;53.160;7.026;2022-10-26T05:55:56;29.60;;;14.77;;
52470;SDS011;38382;53.160;7.026;2022-10-26T05:58:23;28.08;;;14.52;;
52470;SDS011;38382;53.160;7.026;2022-10-26T06:08:20;20.83;;;12.48;;
52470;SDS011;38382;53.160;7.026;2022-10-26T06:10:48;20.85;;;12.00;;
52470;SDS011;38382;53.160;7.026;2022-10-26T06:13:14;21.20;;;11.30;;
52470;SDS011;38382;53.160;7.026;2022-10-26T06:21:19;26.50;;;13.40;;
52470;SDS011;38382;53.160;7.026;2022-10-26T06:24:03;22.13;;;11.32;;
52470;SDS011;38382;53.160;7.026;2022-10-26T06:32:25;18.75;;;10.75;;
52470;SDS011;38382;53.160;7.026;2022-10-26T06:34:53;24.90;;;12.00;;
52470;SDS011;38382;53.160;7.026;2022-10-26T06:37:31;24.45;;;11.30;;
52470;SDS011;38382;53.160;7.026;2022-10-26T06:39:59;21.52;;;11.60;;
52470;SDS011;38382;53.160;7.026;2022-10-26T06:42:26;21.05;;;11.35;;
52470;SDS011;38382;53.160;7.026;2022-10-26T06:44:52;25.20;;;11.38;;
52470;SDS011;38382;53.160;7.026;2022-10-26T06:47:20;23.83;;;11.52;;
52470;SDS011;38382;53.160;7.026;2022-10-26T06:50:00;20.83;;;11.50;;
52470;SDS011;38382;53.160;7.026;2022-10-26T06:55:04;19.85;;;10.90;;
52470;SDS011;38382;53.160;7.026;2022-10-26T06:57:33;17.42;;;10.40;;
52470;SDS011;38382;53.160;7.026;2022-10-26T07:00:03;22.05;;;10.60;;
52470;SDS011;38382;53.160;7.026;2022-10-26T07:02:37;19.38;;;10.90;;
52470;SDS011;38382;53.160;7.026;2022-10-26T07:05:03;19.42;;;10.48;;
52470;SDS011;38382;53.160;7.026;2022-10-26T07:07:29;18.70;;;10.32;;
52470;SDS011;38382;53.160;7.026;2022-10-26T07:09:55;17.83;;;10.18;;
52470;SDS011;38382;53.160;7.026;2022-10-26T07:12:21;16.80;;;9.13;;
52470;SDS011;38382;53.160;7.026;2022-10-26T07:14:47;20.98;;;9.30;;
52470;SDS011;38382;53.160;7.026;2022-10-26T07:17:13;12.98;;;8.85;;
52470;SDS011;38382;53.160;7.026;2022-10-26T07:19:38;18.73;;;9.90;;
52470;SDS011;38382;53.160;7.026;2022-10-26T07:22:04;16.77;;;10.10;;
52470;SDS011;38382;53.160;7.026;2022-10-26T07:24:31;15.32;;;9.65;;
52470;SDS011;38382;53.160;7.026;2022-10-26T07:26:57;17.70;;;9.32;;
52470;SDS011;38382;53.160;7.026;2022-10-26T07:29:23;16.33;;;9.43;;
52470;SDS011;38382;53.160;7.026;2022-10-26T07:31:51;15.38;;;9.57;;
52470;SDS011;38382;53.160;7.026;2022-10-26T07:34:17;16.80;;;9.27;;
52470;SDS011;38382;53.160;7.026;2022-10-26T07:36:43;16.95;;;10.27;;
52470;SDS011;38382;53.160;7.026;2022-10-26T07:39:09;15.90;;;8.82;;
52470;SDS011;38382;53.160;7.026;2022-10-26T07:41:35;15.48;;;9.10;;
52470;SDS011;38382;53.160;7.026;2022-10-26T07:44:00;19.50;;;9.65;;
52470;SDS011;38382;53.160;7.026;2022-10-26T07:46:27;18.33;;;9.57;;
52470;SDS011;38382;53.160;7.026;2022-10-26T07:48:53;16.98;;;9.70;;
52470;SDS011;38382;53.160;7.026;2022-10-26T07:51:18;18.88;;;9.50;;
52470;SDS011;38382;53.160;7.026;2022-10-26T07:53:44;17.00;;;9.70;;
52470;SDS011;38382;53.160;7.026;2022-10-26T07:56:10;16.85;;;9.73;;
52470;SDS011;38382;53.160;7.026;2022-10-26T07:58:36;15.50;;;9.70;;
52470;SDS011;38382;53.160;7.026;2022-10-26T08:01:09;16.42;;;9.45;;
52470;SDS011;38382;53.160;7.026;2022-10-26T08:03:37;16.23;;;8.98;;
52470;SDS011;38382;53.160;7.026;2022-10-26T08:06:03;17.00;;;9.43;;
52470;SDS011;38382;53.160;7.026;2022-10-26T08:08:29;18.38;;;9.43;;
52470;SDS011;38382;53.160;7.026;2022-10-26T08:10:55;17.73;;;9.10;;
52470;SDS011;38382;53.160;7.026;2022-10-26T08:13:22;15.43;;;9.10;;
52470;SDS011;38382;53.160;7.026;2022-10-26T08:15:47;15.68;;;9.10;;
52470;SDS011;38382;53.160;7.026;2022-10-26T08:18:13;17.08;;;9.05;;
52470;SDS011;38382;53.160;7.026;2022-10-26T08:20:39;15.23;;;8.65;;
52470;SDS011;38382;53.160;7.026;2022-10-26T08:23:05;15.88;;;8.30;;
52470;SDS011;38382;53.160;7.026;2022-10-26T08:25:32;15.07;;;8.52;;
52470;SDS011;38382;53.160;7.026;2022-10-26T08:28:02;19.35;;;8.55;;
52470;SDS011;38382;53.160;7.026;2022-10-26T08:30:31;13.32;;;8.10;;
52470;SDS011;38382;53.160;7.026;2022-10-26T08:33:04;13.82;;;7.63;;
52470;SDS011;38382;53.160;7.026;2022-10-26T08:35:32;12.45;;;7.95;;
52470;SDS011;38382;53.160;7.026;2022-10-26T08:37:58;13.07;;;8.05;;
52470;SDS011;38382;53.160;7.026;2022-10-26T08:40:26;14.68;;;7.55;;
52470;SDS011;38382;53.160;7.026;2022-10-26T08:42:57;12.68;;;7.88;;
52470;SDS011;38382;53.160;7.026;2022-10-26T08:45:32;14.43;;;8.05;;
52470;SDS011;38382;53.160;7.026;2022-10-26T08:48:08;14.88;;;7.28;;
52470;SDS011;38382;53.160;7.026;2022-10-26T08:50:46;12.77;;;7.57;;
52470;SDS011;38382;53.160;7.026;2022-10-26T08:53:29;16.10;;;7.15;;
52470;SDS011;38382;53.160;7.026;2022-10-26T08:56:03;13.82;;;6.78;;
52470;SDS011;38382;53.160;7.026;2022-10-26T08:58:37;10.75;;;6.30;;
52470;SDS011;38382;53.160;7.026;2022-10-26T09:01:08;10.60;;;6.10;;
52470;SDS011;38382;53.160;7.026;2022-10-26T09:03:33;12.18;;;6.45;;
52470;SDS011;38382;53.160;7.026;2022-10-26T09:14:03;10.77;;;5.70;;
52470;SDS011;38382;53.160;7.026;2022-10-26T09:22:03;11.38;;;5.13;;
52470;SDS011;38382;53.160;7.026;2022-10-26T09:24:50;7.93;;;5.05;;
52470;SDS011;38382;53.160;7.026;2022-10-26T09:27:28;8.98;;;4.68;;
52470;SDS011;38382;53.160;7.026;2022-10-26T09:29:59;6.25;;;4.18;;
52470;SDS011;38382;53.160;7.026;2022-10-26T09:32:35;8.77;;;5.30;;
52470;SDS011;38382;53.160;7.026;2022-10-26T09:35:09;7.22;;;4.28;;
52470;SDS011;38382;53.160;7.026;2022-10-26T09:37:56;9.80;;;4.57;;
52470;SDS011;38382;53.160;7.026;2022-10-26T09:43:43;10.25;;;4.22;;
52470;SDS011;38382;53.160;7.026;2022-10-26T09:46:30;10.95;;;4.20;;
52470;SDS011;38382;53.160;7.026;2022-10-26T09:49:07;6.95;;;3.90;;
52470;SDS011;38382;53.160;7.026;2022-10-26T09:51:38;7.70;;;3.92;;
52470;SDS011;38382;53.160;7.026;2022-10-26T09:54:16;8.32;;;4.30;;
52470;SDS011;38382;53.160;7.026;2022-10-26T09:56:43;7.38;;;3.78;;
52470;SDS011;38382;53.160;7.026;2022-10-26T09:59:14;9.43;;;3.53;;
52470;SDS011;38382;53.160;7.026;2022-10-26T10:01:42;6.43;;;3.53;;
52470;SDS011;38382;53.160;7.026;2022-10-26T10:04:09;9.65;;;3.75;;
52470;SDS011;38382;53.160;7.026;2022-10-26T10:06:44;7.75;;;3.53;;
52470;SDS011;38382;53.160;7.026;2022-10-26T10:09:13;7.43;;;3.45;;
52470;SDS011;38382;53.160;7.026;2022-10-26T10:14:25;7.45;;;3.10;;
52470;SDS011;38382;53.160;7.026;2022-10-26T10:17:02;6.03;;;3.10;;
52470;SDS011;38382;53.160;7.026;2022-10-26T10:19:33;9.45;;;3.30;;
52470;SDS011;38382;53.160;7.026;2022-10-26T10:22:07;6.82;;;3.60;;
52470;SDS011;38382;53.160;7.026;2022-10-26T10:24:36;8.90;;;3.63;;
52470;SDS011;38382;53.160;7.026;2022-10-26T10:32:13;5.85;;;3.03;;
52470;SDS011;38382;53.160;7.026;2022-10-26T10:34:39;8.38;;;3.30;;
52470;SDS011;38382;53.160;7.026;2022-10-26T10:37:05;7.38;;;3.50;;
52470;SDS011;38382;53.160;7.026;2022-10-26T10:39:46;7.07;;;3.08;;
52470;SDS011;38382;53.160;7.026;2022-10-26T10:42:22;6.55;;;3.30;;
52470;SDS011;38382;53.160;7.026;2022-10-26T10:44:58;5.10;;;2.92;;
52470;SDS011;38382;53.160;7.026;2022-10-26T10:47:43;9.77;;;3.50;;
52470;SDS011;38382;53.160;7.026;2022-10-26T10:50:22;8.73;;;3.03;;
52470;SDS011;38382;53.160;7.026;2022-10-26T10:52:48;7.32;;;3.28;;
52470;SDS011;38382;53.160;7.026;2022-10-26T11:00:08;5.32;;;3.00;;
52470;SDS011;38382;53.160;7.026;2022-10-26T11:02:50;6.10;;;3.00;;
52470;SDS011;38382;53.160;7.026;2022-10-26T11:08:00;7.07;;;3.03;;
52470;SDS011;38382;53.160;7.026;2022-10-26T11:10:28;7.65;;;3.10;;
52470;SDS011;38382;53.160;7.026;2022-10-26T11:12:59;7.75;;;2.90;;
52470;SDS011;38382;53.160;7.026;2022-10-26T11:15:30;8.63;;;2.90;;
52470;SDS011;38382;53.160;7.026;2022-10-26T11:20:50;5.80;;;2.80;;
52470;SDS011;38382;53.160;7.026;2022-10-26T11:23:24;7.45;;;2.85;;
52470;SDS011;38382;53.160;7.026;2022-10-26T11:25:58;5.55;;;2.58;;
52470;SDS011;38382;53.160;7.026;2022-10-26T11:31:00;4.55;;;2.50;;
52470;SDS011;38382;53.160;7.026;2022-10-26T11:33:35;5.95;;;2.67;;
52470;SDS011;38382;53.160;7.026;2022-10-26T11:36:08;5.30;;;2.40;;
52470;SDS011;38382;53.160;7.026;2022-10-26T11:41:17;7.63;;;2.50;;
52470;SDS011;38382;53.160;7.026;2022-10-26T11:43:45;6.32;;;2.45;;
52470;SDS011;38382;53.160;7.026;2022-10-26T11:46:20;12.40;;;2.65;;
52470;SDS011;38382;53.160;7.026;2022-10-26T11:52:13;4.82;;;2.17;;
52470;SDS011;38382;53.160;7.026;2022-10-26T11:55:00;4.53;;;2.35;;
52470;SDS011;38382;53.160;7.026;2022-10-26T11:57:29;6.80;;;2.47;;
52470;SDS011;38382;53.160;7.026;2022-10-26T12:00:01;6.25;;;2.65;;
52470;SDS011;38382;53.160;7.026;2022-10-26T12:02:41;4.50;;;2.60;;
52470;SDS011;38382;53.160;7.026;2022-10-26T12:08:02;5.97;;;2.60;;
52470;SDS011;38382;53.160;7.026;2022-10-26T12:11:08;5.90;;;2.38;;
52470;SDS011;38382;53.160;7.026;2022-10-26T12:14:00;12.20;;;3.03;;
52470;SDS011;38382;53.160;7.026;2022-10-26T12:22:08;8.02;;;2.83;;
52470;SDS011;38382;53.160;7.026;2022-10-26T12:24:38;5.25;;;2.75;;
52470;SDS011;38382;53.160;7.026;2022-10-26T12:27:31;6.43;;;2.45;;
52470;SDS011;38382;53.160;7.026;2022-10-26T12:37:55;8.95;;;2.75;;
52470;SDS011;38382;53.160;7.026;2022-10-26T12:45:38;7.57;;;2.75;;
52470;SDS011;38382;53.160;7.026;2022-10-26T12:48:09;6.70;;;2.60;;
52470;SDS011;38382;53.160;7.026;2022-10-26T12:50:51;7.05;;;3.10;;
52470;SDS011;38382;53.160;7.026;2022-10-26T12:53:20;6.18;;;2.58;;
52470;SDS011;38382;53.160;7.026;2022-10-26T12:58:45;7.15;;;2.42;;
52470;SDS011;38382;53.160;7.026;2022-10-26T13:09:38;8.93;;;3.17;;
52470;SDS011;38382;53.160;7.026;2022-10-26T13:12:20;10.48;;;2.97;;
52470;SDS011;38382;53.160;7.026;2022-10-26T13:15:05;6.90;;;2.90;;
52470;SDS011;38382;53.160;7.026;2022-10-26T13:17:56;7.13;;;3.17;;
52470;SDS011;38382;53.160;7.026;2022-10-26T13:23:27;12.88;;;3.10;;
52470;SDS011;38382;53.160;7.026;2022-10-26T13:31:02;7.05;;;3.00;;
52470;SDS011;38382;53.160;7.026;2022-10-26T13:33:35;9.98;;;3.20;;
52470;SDS011;38382;53.160;7.026;2022-10-26T13:39:19;11.70;;;3.50;;
52470;SDS011;38382;53.160;7.026;2022-10-26T13:41:50;6.10;;;3.03;;
52470;SDS011;38382;53.160;7.026;2022-10-26T13:47:16;8.52;;;2.95;;
52470;SDS011;38382;53.160;7.026;2022-10-26T13:49:50;5.88;;;2.80;;
52470;SDS011;38382;53.160;7.026;2022-10-26T13:52:24;10.60;;;2.97;;
52470;SDS011;38382;53.160;7.026;2022-10-26T13:57:43;14.25;;;3.53;;
52470;SDS011;38382;53.160;7.026;2022-10-26T14:00:15;5.03;;;2.80;;
52470;SDS011;38382;53.160;7.026;2022-10-26T14:02:44;9.40;;;3.08;;
52470;SDS011;38382;53.160;7.026;2022-10-26T14:05:11;5.15;;;3.00;;
52470;SDS011;38382;53.160;7.026;2022-10-26T14:07:43;7.45;;;3.40;;
52470;SDS011;38382;53.160;7.026;2022-10-26T14:10:36;9.15;;;3.42;;
52470;SDS011;38382;53.160;7.026;2022-10-26T14:13:05;6.43;;;2.80;;
52470;SDS011;38382;53.160;7.026;2022-10-26T14:15:32;9.13;;;3.20;;
52470;SDS011;38382;53.160;7.026;2022-10-26T14:18:00;9.63;;;4.05;;
52470;SDS011;38382;53.160;7.026;2022-10-26T14:20:28;6.47;;;2.83;;
52470;SDS011;38382;53.160;7.026;2022-10-26T14:22:55;8.50;;;3.47;;
52470;SDS011;38382;53.160;7.026;2022-10-26T14:25:22;8.77;;;3.55;;
52470;SDS011;38382;53.160;7.026;2022-10-26T14:27:50;9.25;;;3.70;;
52470;SDS011;38382;53.160;7.026;2022-10-26T14:32:50;8.13;;;3.80;;
52470;SDS011;38382;53.160;7.026;2022-10-26T14:35:16;7.18;;;3.13;;
52470;SDS011;38382;53.160;7.026;2022-10-26T14:37:50;9.25;;;3.55;;
52470;SDS011;38382;53.160;7.026;2022-10-26T14:40:20;10.10;;;4.30;;
52470;SDS011;38382;53.160;7.026;2022-10-26T14:42:49;9.48;;;3.40;;
52470;SDS011;38382;53.160;7.026;2022-10-26T14:47:56;8.57;;;3.55;;
52470;SDS011;38382;53.160;7.026;2022-10-26T14:50:23;7.22;;;3.08;;
52470;SDS011;38382;53.160;7.026;2022-10-26T14:52:55;10.88;;;3.63;;
52470;SDS011;38382;53.160;7.026;2022-10-26T14:55:24;8.00;;;3.05;;
52470;SDS011;38382;53.160;7.026;2022-10-26T14:57:51;6.10;;;3.35;;
52470;SDS011;38382;53.160;7.026;2022-10-26T15:00:29;7.63;;;3.67;;
52470;SDS011;38382;53.160;7.026;2022-10-26T15:02:56;8.40;;;4.20;;
52470;SDS011;38382;53.160;7.026;2022-10-26T15:07:48;8.18;;;3.50;;
52470;SDS011;38382;53.160;7.026;2022-10-26T15:15:47;7.35;;;3.22;;
52470;SDS011;38382;53.160;7.026;2022-10-26T15:18:27;5.95;;;3.42;;
52470;SDS011;38382;53.160;7.026;2022-10-26T15:20:57;12.68;;;3.95;;
52470;SDS011;38382;53.160;7.026;2022-10-26T15:23:23;8.27;;;4.30;;
52470;SDS011;38382;53.160;7.026;2022-10-26T15:25:55;8.82;;;4.07;;
52470;SDS011;38382;53.160;7.026;2022-10-26T15:28:23;9.93;;;4.50;;
52470;SDS011;38382;53.160;7.026;2022-10-26T15:34:23;11.32;;;4.65;;
52470;SDS011;38382;53.160;7.026;2022-10-26T15:36:30;6.25;;;3.50;;
52470;SDS011;38382;53.160;7.026;2022-10-26T15:38:57;9.68;;;4.35;;
52470;SDS011;38382;53.160;7.026;2022-10-26T15:43:51;10.05;;;4.60;;
52470;SDS011;38382;53.160;7.026;2022-10-26T15:46:20;7.55;;;4.15;;
52470;SDS011;38382;53.160;7.026;2022-10-26T15:48:54;8.02;;;4.22;;
52470;SDS011;38382;53.160;7.026;2022-10-26T15:51:21;9.90;;;4.75;;
52470;SDS011;38382;53.160;7.026;2022-10-26T15:53:49;11.35;;;5.65;;
52470;SDS011;38382;53.160;7.026;2022-10-26T15:56:15;9.63;;;5.00;;
52470;SDS011;38382;53.160;7.026;2022-10-26T15:58:42;9.63;;;4.68;;
52470;SDS011;38382;53.160;7.026;2022-10-26T16:01:13;9.13;;;4.93;;
52470;SDS011;38382;53.160;7.026;2022-10-26T16:03:44;7.45;;;4.43;;
52470;SDS011;38382;53.160;7.026;2022-10-26T16:06:17;15.25;;;5.63;;
52470;SDS011;38382;53.160;7.026;2022-10-26T16:08:54;9.50;;;5.13;;
52470;SDS011;38382;53.160;7.026;2022-10-26T16:11:23;9.90;;;5.60;;
52470;SDS011;38382;53.160;7.026;2022-10-26T16:13:49;10.85;;;5.70;;
52470;SDS011;38382;53.160;7.026;2022-10-26T16:16:15;9.93;;;5.88;;
52470;SDS011;38382;53.160;7.026;2022-10-26T16:18:44;8.15;;;5.15;;
52470;SDS011;38382;53.160;7.026;2022-10-26T16:21:13;12.32;;;7.20;;
52470;SDS011;38382;53.160;7.026;2022-10-26T16:23:41;10.25;;;6.28;;
52470;SDS011;38382;53.160;7.026;2022-10-26T16:26:09;12.80;;;6.53;;
52470;SDS011;38382;53.160;7.026;2022-10-26T16:28:36;12.32;;;5.90;;
52470;SDS011;38382;53.160;7.026;2022-10-26T16:31:06;10.93;;;6.40;;
52470;SDS011;38382;53.160;7.026;2022-10-26T16:33:34;10.70;;;5.50;;
52470;SDS011;38382;53.160;7.026;2022-10-26T16:36:00;7.78;;;4.93;;
52470;SDS011;38382;53.160;7.026;2022-10-26T16:38:27;8.77;;;5.47;;
52470;SDS011;38382;53.160;7.026;2022-10-26T16:41:05;9.20;;;5.70;;
52470;SDS011;38382;53.160;7.026;2022-10-26T16:43:34;13.32;;;6.57;;
52470;SDS011;38382;53.160;7.026;2022-10-26T16:46:06;8.27;;;5.65;;
52470;SDS011;38382;53.160;7.026;2022-10-26T16:51:04;9.10;;;6.05;;
52470;SDS011;38382;53.160;7.026;2022-10-26T16:53:31;11.98;;;5.40;;
52470;SDS011;38382;53.160;7.026;2022-10-26T16:56:01;7.88;;;5.70;;
52470;SDS011;38382;53.160;7.026;2022-10-26T16:58:28;10.15;;;5.95;;
52470;SDS011;38382;53.160;7.026;2022-10-26T17:00:54;12.85;;;5.80;;
52470;SDS011;38382;53.160;7.026;2022-10-26T17:03:20;7.82;;;5.30;;
52470;SDS011;38382;53.160;7.026;2022-10-26T17:05:45;8.95;;;5.43;;
52470;SDS011;38382;53.160;7.026;2022-10-26T17:08:11;8.95;;;5.25;;
52470;SDS011;38382;53.160;7.026;2022-10-26T17:10:37;9.13;;;5.63;;
52470;SDS011;38382;53.160;7.026;2022-10-26T17:13:02;8.25;;;4.82;;
52470;SDS011;38382;53.160;7.026;2022-10-26T17:15:28;10.77;;;6.28;;
52470;SDS011;38382;53.160;7.026;2022-10-26T17:17:54;11.35;;;6.47;;
52470;SDS011;38382;53.160;7.026;2022-10-26T17:20:20;13.57;;;6.20;;
52470;SDS011;38382;53.160;7.026;2022-10-26T17:22:45;8.80;;;5.75;;
52470;SDS011;38382;53.160;7.026;2022-10-26T17:25:11;11.40;;;5.57;;
52470;SDS011;38382;53.160;7.026;2022-10-26T17:27:37;8.80;;;5.85;;
52470;SDS011;38382;53.160;7.026;2022-10-26T17:30:02;9.15;;;5.20;;
52470;SDS011;38382;53.160;7.026;2022-10-26T17:32:29;13.02;;;6.80;;
52470;SDS011;38382;53.160;7.026;2022-10-26T17:34:54;12.10;;;6.90;;
52470;SDS011;38382;53.160;7.026;2022-10-26T17:37:20;9.43;;;5.25;;